Rio Bananal, Brazil
Current Conditions -  °F | °C
As of 12:00 AM on Saturday 29 Nov 2014 (Local Time) from SBVT Reporting Station
Light Rain Light Rain  
Wind Chill: 73°   Ceiling: 1400
Heat Index: 73°   Visibility: 4mi
Dew Point: 70°   Wind: 8mph
Humidity: 88%   Direction: 230°SW
Pressure: 30"   Gusts: NA
Location:  19.26°S, 40.34°W
Report Text: SBVT 290200Z 23007KT 7000 -RA SCT010 BKN014 8SC030 23/21 Q1016
Loading
Personal Weather Stations






























Interactive Weather Map New forecast layout! Learn more

10-Day Weather Forecast

Advertisements
Track Severe Weather on mobile